sensor_id;sensor_type;location;lat;lon;timestamp;pressure;altitude;pressure_sealevel;temperature;humidity
77321;BME280;66382;52.252;8.780;2023-12-07T00:02:04;100837.00;;;4.80;73.05
77321;BME280;66382;52.252;8.780;2023-12-07T00:04:30;100846.63;;;4.81;72.88
77321;BME280;66382;52.252;8.780;2023-12-07T00:06:55;100836.84;;;4.82;72.96
77321;BME280;66382;52.252;8.780;2023-12-07T00:09:22;100849.28;;;4.81;72.78
77321;BME280;66382;52.252;8.780;2023-12-07T00:11:47;100851.81;;;4.83;73.06
77321;BME280;66382;52.252;8.780;2023-12-07T00:14:13;100849.28;;;4.81;73.00
77321;BME280;66382;52.252;8.780;2023-12-07T00:16:38;100848.16;;;4.84;73.43
77321;BME280;66382;52.252;8.780;2023-12-07T00:19:03;100843.16;;;4.81;73.13
77321;BME280;66382;52.252;8.780;2023-12-07T00:21:29;100850.13;;;4.82;72.85
77321;BME280;66382;52.252;8.780;2023-12-07T00:23:54;100849.41;;;4.80;72.93
77321;BME280;66382;52.252;8.780;2023-12-07T00:26:21;100839.50;;;4.72;73.18
77321;BME280;66382;52.252;8.780;2023-12-07T00:28:47;100852.06;;;4.80;73.29
77321;BME280;66382;52.252;8.780;2023-12-07T00:31:12;100858.25;;;4.80;73.05
77321;BME280;66382;52.252;8.780;2023-12-07T00:33:37;100860.75;;;4.82;73.26
77321;BME280;66382;52.252;8.780;2023-12-07T00:36:03;100856.28;;;4.82;73.10
77321;BME280;66382;52.252;8.780;2023-12-07T00:38:29;100862.16;;;4.86;72.92
77321;BME280;66382;52.252;8.780;2023-12-07T00:40:54;100866.47;;;4.87;72.84
77321;BME280;66382;52.252;8.780;2023-12-07T00:43:21;100847.34;;;4.73;72.98
77321;BME280;66382;52.252;8.780;2023-12-07T00:45:46;100862.28;;;4.84;72.72
77321;BME280;66382;52.252;8.780;2023-12-07T00:48:12;100872.06;;;4.84;72.76
77321;BME280;66382;52.252;8.780;2023-12-07T00:50:37;100858.50;;;4.77;72.93
77321;BME280;66382;52.252;8.780;2023-12-07T00:53:03;100880.75;;;4.86;73.07
77321;BME280;66382;52.252;8.780;2023-12-07T00:55:28;100871.94;;;4.85;72.81
77321;BME280;66382;52.252;8.780;2023-12-07T00:57:54;100891.38;;;4.86;72.66
77321;BME280;66382;52.252;8.780;2023-12-07T01:00:21;100885.06;;;4.87;72.55
77321;BME280;66382;52.252;8.780;2023-12-07T01:02:46;100889.00;;;4.83;72.75
77321;BME280;66382;52.252;8.780;2023-12-07T01:05:11;100889.72;;;4.85;72.66
77321;BME280;66382;52.252;8.780;2023-12-07T01:07:37;100873.38;;;4.70;73.04
77321;BME280;66382;52.252;8.780;2023-12-07T01:10:03;100902.84;;;4.86;73.40
77321;BME280;66382;52.252;8.780;2023-12-07T01:12:28;100902.13;;;4.84;73.16
77321;BME280;66382;52.252;8.780;2023-12-07T01:14:54;100902.00;;;4.86;73.34
77321;BME280;66382;52.252;8.780;2023-12-07T01:17:20;100904.53;;;4.87;72.84
77321;BME280;66382;52.252;8.780;2023-12-07T01:19:46;100905.19;;;4.89;73.10
77321;BME280;66382;52.252;8.780;2023-12-07T01:22:11;100907.84;;;4.89;73.03
77321;BME280;66382;52.252;8.780;2023-12-07T01:24:37;100906.88;;;4.90;72.81
77321;BME280;66382;52.252;8.780;2023-12-07T01:27:02;100896.69;;;4.86;72.60
77321;BME280;66382;52.252;8.780;2023-12-07T01:29:28;100906.06;;;4.90;72.62
77321;BME280;66382;52.252;8.780;2023-12-07T01:31:53;100907.84;;;4.89;73.15
77321;BME280;66382;52.252;8.780;2023-12-07T01:34:20;100911.50;;;4.88;73.07
77321;BME280;66382;52.252;8.780;2023-12-07T01:36:45;100906.19;;;4.88;73.00
77321;BME280;66382;52.252;8.780;2023-12-07T01:39:11;100906.06;;;4.90;73.04
77321;BME280;66382;52.252;8.780;2023-12-07T01:41:37;100904.66;;;4.86;72.63
77321;BME280;66382;52.252;8.780;2023-12-07T01:44:03;100910.81;;;4.86;72.84
77321;BME280;66382;52.252;8.780;2023-12-07T01:46:29;100915.00;;;4.89;72.90
77321;BME280;66382;52.252;8.780;2023-12-07T01:48:54;100922.00;;;4.90;72.78
77321;BME280;66382;52.252;8.780;2023-12-07T01:51:21;100918.47;;;4.89;72.77
77321;BME280;66382;52.252;8.780;2023-12-07T01:53:47;100915.00;;;4.89;72.93
77321;BME280;66382;52.252;8.780;2023-12-07T01:56:13;100921.41;;;4.86;73.30
77321;BME280;66382;52.252;8.780;2023-12-07T01:58:39;100922.13;;;4.88;72.79
77321;BME280;66382;52.252;8.780;2023-12-07T02:01:05;100916.94;;;4.87;72.78
77321;BME280;66382;52.252;8.780;2023-12-07T02:03:31;100929.09;;;4.89;72.75
77321;BME280;66382;52.252;8.780;2023-12-07T02:05:57;100923.94;;;4.88;72.93
77321;BME280;66382;52.252;8.780;2023-12-07T02:08:24;100923.13;;;4.87;72.72
77321;BME280;66382;52.252;8.780;2023-12-07T02:10:50;100926.75;;;4.86;73.09
77321;BME280;66382;52.252;8.780;2023-12-07T02:13:16;100912.34;;;4.79;72.70
77321;BME280;66382;52.252;8.780;2023-12-07T02:15:41;100926.03;;;4.84;73.16
77321;BME280;66382;52.252;8.780;2023-12-07T02:18:14;100917.53;;;4.81;72.90
77321;BME280;66382;52.252;8.780;2023-12-07T02:20:44;100921.59;;;4.85;73.26
77321;BME280;66382;52.252;8.780;2023-12-07T02:23:14;100929.56;;;4.85;73.05
77321;BME280;66382;52.252;8.780;2023-12-07T02:25:44;100929.69;;;4.83;73.14
77321;BME280;66382;52.252;8.780;2023-12-07T02:28:14;100926.31;;;4.81;72.75
77321;BME280;66382;52.252;8.780;2023-12-07T02:30:40;100932.34;;;4.83;72.54
77321;BME280;66382;52.252;8.780;2023-12-07T02:33:05;100923.13;;;4.78;73.18
77321;BME280;66382;52.252;8.780;2023-12-07T02:35:32;100925.06;;;4.76;72.87
77321;BME280;66382;52.252;8.780;2023-12-07T02:37:58;100925.50;;;4.81;72.88
77321;BME280;66382;52.252;8.780;2023-12-07T02:40:27;100933.88;;;4.86;73.08
77321;BME280;66382;52.252;8.780;2023-12-07T02:42:53;100934.00;;;4.84;73.10
77321;BME280;66382;52.252;8.780;2023-12-07T02:45:21;100944.22;;;4.89;72.76
77321;BME280;66382;52.252;8.780;2023-12-07T02:47:46;100945.03;;;4.89;73.42
77321;BME280;66382;52.252;8.780;2023-12-07T02:50:12;100935.69;;;4.85;72.77
77321;BME280;66382;52.252;8.780;2023-12-07T02:52:39;100945.91;;;4.90;72.95
77321;BME280;66382;52.252;8.780;2023-12-07T02:55:05;100944.22;;;4.89;73.39
77321;BME280;66382;52.252;8.780;2023-12-07T02:57:31;100944.22;;;4.89;72.86
77321;BME280;66382;52.252;8.780;2023-12-07T02:59:56;100944.22;;;4.89;73.40
77321;BME280;66382;52.252;8.780;2023-12-07T03:02:23;100948.81;;;4.87;73.01
77321;BME280;66382;52.252;8.780;2023-12-07T03:04:49;100948.16;;;4.85;72.74
77321;BME280;66382;52.252;8.780;2023-12-07T03:07:14;100941.00;;;4.85;73.15
77321;BME280;66382;52.252;8.780;2023-12-07T03:09:39;100948.97;;;4.85;73.20
77321;BME280;66382;52.252;8.780;2023-12-07T03:12:06;100957.78;;;4.86;72.77
77321;BME280;66382;52.252;8.780;2023-12-07T03:14:32;100957.09;;;4.84;73.07
77321;BME280;66382;52.252;8.780;2023-12-07T03:16:57;100952.47;;;4.86;73.04
77321;BME280;66382;52.252;8.780;2023-12-07T03:19:24;100954.84;;;4.79;72.32
77321;BME280;66382;52.252;8.780;2023-12-07T03:21:49;100954.59;;;4.82;73.15
77321;BME280;66382;52.252;8.780;2023-12-07T03:24:15;100960.44;;;4.86;72.85
77321;BME280;66382;52.252;8.780;2023-12-07T03:26:40;100956.94;;;4.85;72.86
77321;BME280;66382;52.252;8.780;2023-12-07T03:29:06;100960.44;;;4.86;72.72
77321;BME280;66382;52.252;8.780;2023-12-07T03:31:32;100969.41;;;4.85;72.84
77321;BME280;66382;52.252;8.780;2023-12-07T03:33:57;100956.25;;;4.83;72.97
77321;BME280;66382;52.252;8.780;2023-12-07T03:36:24;100960.44;;;4.86;72.89
77321;BME280;66382;52.252;8.780;2023-12-07T03:38:49;100959.03;;;4.82;73.13
77321;BME280;66382;52.252;8.780;2023-12-07T03:41:15;100964.22;;;4.83;73.11
77321;BME280;66382;52.252;8.780;2023-12-07T03:43:41;100969.53;;;4.83;72.79
77321;BME280;66382;52.252;8.780;2023-12-07T03:46:07;100960.84;;;4.81;72.73
77321;BME280;66382;52.252;8.780;2023-12-07T03:48:33;100961.56;;;4.83;72.86
77321;BME280;66382;52.252;8.780;2023-12-07T03:50:58;100959.75;;;4.84;72.70
77321;BME280;66382;52.252;8.780;2023-12-07T03:53:25;100954.72;;;4.81;72.97
77321;BME280;66382;52.252;8.780;2023-12-07T03:55:52;100961.44;;;4.85;73.17
77321;BME280;66382;52.252;8.780;2023-12-07T03:58:18;100960.72;;;4.83;72.94
77321;BME280;66382;52.252;8.780;2023-12-07T04:00:44;100962.69;;;4.81;72.87
77321;BME280;66382;52.252;8.780;2023-12-07T04:03:09;100953.59;;;4.73;73.41
77321;BME280;66382;52.252;8.780;2023-12-07T04:05:35;100972.31;;;4.82;72.99
77321;BME280;66382;52.252;8.780;2023-12-07T04:08:00;100967.00;;;4.82;72.70
77321;BME280;66382;52.252;8.780;2023-12-07T04:10:27;100968.69;;;4.83;72.66
77321;BME280;66382;52.252;8.780;2023-12-07T04:12:53;100968.00;;;4.81;72.75
77321;BME280;66382;52.252;8.780;2023-12-07T04:15:18;100974.97;;;4.82;72.68
77321;BME280;66382;52.252;8.780;2023-12-07T04:17:44;100972.31;;;4.82;72.95
77321;BME280;66382;52.252;8.780;2023-12-07T04:20:10;100967.16;;;4.80;72.80
77321;BME280;66382;52.252;8.780;2023-12-07T04:22:36;100964.75;;;4.77;72.81
77321;BME280;66382;52.252;8.780;2023-12-07T04:25:01;100962.56;;;4.72;72.63
77321;BME280;66382;52.252;8.780;2023-12-07T04:27:28;100972.06;;;4.75;73.14
77321;BME280;66382;52.252;8.780;2023-12-07T04:29:53;100974.72;;;4.75;73.12
77321;BME280;66382;52.252;8.780;2023-12-07T04:32:19;100972.88;;;4.76;72.84
77321;BME280;66382;52.252;8.780;2023-12-07T04:34:44;100960.31;;;4.68;72.48
77321;BME280;66382;52.252;8.780;2023-12-07T04:37:09;100966.88;;;4.73;72.57
77321;BME280;66382;52.252;8.780;2023-12-07T04:39:36;100961.84;;;4.70;72.70
77321;BME280;66382;52.252;8.780;2023-12-07T04:42:02;100968.81;;;4.71;72.77
77321;BME280;66382;52.252;8.780;2023-12-07T04:44:28;100973.00;;;4.74;72.79
77321;BME280;66382;52.252;8.780;2023-12-07T04:46:54;100971.19;;;4.74;72.96
77321;BME280;66382;52.252;8.780;2023-12-07T04:49:19;100967.44;;;4.67;72.48
77321;BME280;66382;52.252;8.780;2023-12-07T04:51:45;100977.78;;;4.70;72.67
77321;BME280;66382;52.252;8.780;2023-12-07T04:54:10;100972.28;;;4.62;72.49
77321;BME280;66382;52.252;8.780;2023-12-07T04:56:36;100969.81;;;4.61;73.03
77321;BME280;66382;52.252;8.780;2023-12-07T04:59:01;100974.00;;;4.63;72.95
77321;BME280;66382;52.252;8.780;2023-12-07T05:01:28;100972.16;;;4.64;72.54
77321;BME280;66382;52.252;8.780;2023-12-07T05:03:53;100981.81;;;4.65;72.84
77321;BME280;66382;52.252;8.780;2023-12-07T05:06:19;100972.44;;;4.61;72.83
77321;BME280;66382;52.252;8.780;2023-12-07T05:08:44;100972.28;;;4.62;72.69
77321;BME280;66382;52.252;8.780;2023-12-07T05:11:10;100969.50;;;4.64;72.82
77321;BME280;66382;52.252;8.780;2023-12-07T05:13:35;100973.00;;;4.64;73.13
77321;BME280;66382;52.252;8.780;2023-12-07T05:16:01;100975.53;;;4.66;72.67
77321;BME280;66382;52.252;8.780;2023-12-07T05:18:27;100979.03;;;4.66;72.51
77321;BME280;66382;52.252;8.780;2023-12-07T05:20:53;100989.22;;;4.61;72.76
77321;BME280;66382;52.252;8.780;2023-12-07T05:23:18;100993.00;;;4.59;72.67
77321;BME280;66382;52.252;8.780;2023-12-07T05:25:44;100978.59;;;4.51;73.01
77321;BME280;66382;52.252;8.780;2023-12-07T05:28:09;100983.91;;;4.51;73.40
77321;BME280;66382;52.252;8.780;2023-12-07T05:30:35;100994.09;;;4.56;72.91
77321;BME280;66382;52.252;8.780;2023-12-07T05:33:01;100985.59;;;4.52;72.55
77321;BME280;66382;52.252;8.780;2023-12-07T05:35:27;100985.59;;;4.52;72.68
77321;BME280;66382;52.252;8.780;2023-12-07T05:37:53;100978.03;;;4.48;72.64
77321;BME280;66382;52.252;8.780;2023-12-07T05:40:19;100988.09;;;4.54;73.03
77321;BME280;66382;52.252;8.780;2023-12-07T05:42:49;100985.31;;;4.56;72.70
77321;BME280;66382;52.252;8.780;2023-12-07T05:45:14;100986.97;;;4.57;72.91
77321;BME280;66382;52.252;8.780;2023-12-07T05:47:40;100992.88;;;4.60;72.92
77321;BME280;66382;52.252;8.780;2023-12-07T05:50:07;100993.69;;;4.61;72.32
77321;BME280;66382;52.252;8.780;2023-12-07T05:52:34;100987.41;;;4.62;72.73
77321;BME280;66382;52.252;8.780;2023-12-07T05:54:59;100985.72;;;4.61;72.54
77321;BME280;66382;52.252;8.780;2023-12-07T05:57:24;100992.72;;;4.62;72.67
77321;BME280;66382;52.252;8.780;2023-12-07T05:59:50;100987.56;;;4.60;72.82
77321;BME280;66382;52.252;8.780;2023-12-07T06:02:15;100987.41;;;4.62;72.26
77321;BME280;66382;52.252;8.780;2023-12-07T06:04:41;100987.56;;;4.60;72.47
77321;BME280;66382;52.252;8.780;2023-12-07T06:07:06;100992.00;;;4.60;72.73
77321;BME280;66382;52.252;8.780;2023-12-07T06:09:33;100993.81;;;4.59;72.34
77321;BME280;66382;52.252;8.780;2023-12-07T06:12:01;101006.41;;;4.57;73.10
77321;BME280;66382;52.252;8.780;2023-12-07T06:14:27;101003.91;;;4.56;72.70
77321;BME280;66382;52.252;8.780;2023-12-07T06:16:53;101010.59;;;4.60;72.68
77321;BME280;66382;52.252;8.780;2023-12-07T06:19:18;101017.00;;;4.57;72.53
77321;BME280;66382;52.252;8.780;2023-12-07T06:21:44;101024.56;;;4.62;72.35
77321;BME280;66382;52.252;8.780;2023-12-07T06:24:09;101023.75;;;4.61;73.10
77321;BME280;66382;52.252;8.780;2023-12-07T06:26:36;101022.19;;;4.59;72.99
77321;BME280;66382;52.252;8.780;2023-12-07T06:29:01;101030.03;;;4.60;72.65
77321;BME280;66382;52.252;8.780;2023-12-07T06:31:27;101024.84;;;4.59;73.18
77321;BME280;66382;52.252;8.780;2023-12-07T06:33:54;101026.97;;;4.55;72.57
77321;BME280;66382;52.252;8.780;2023-12-07T06:36:21;101020.78;;;4.55;72.67
77321;BME280;66382;52.252;8.780;2023-12-07T06:38:47;101021.66;;;4.55;72.65
77321;BME280;66382;52.252;8.780;2023-12-07T06:41:12;101021.78;;;4.53;72.39
77321;BME280;66382;52.252;8.780;2023-12-07T06:43:39;101022.47;;;4.56;72.56
77321;BME280;66382;52.252;8.780;2023-12-07T06:46:04;101021.66;;;4.55;72.31
77321;BME280;66382;52.252;8.780;2023-12-07T06:48:30;101026.09;;;4.55;72.62
77321;BME280;66382;52.252;8.780;2023-12-07T06:50:55;101021.66;;;4.55;72.65
77321;BME280;66382;52.252;8.780;2023-12-07T06:53:21;101029.63;;;4.55;72.09
77321;BME280;66382;52.252;8.780;2023-12-07T06:55:46;101035.88;;;4.54;72.75
77321;BME280;66382;52.252;8.780;2023-12-07T06:58:12;101038.41;;;4.56;72.69
77321;BME280;66382;52.252;8.780;2023-12-07T07:00:39;101037.59;;;4.55;73.04
77321;BME280;66382;52.252;8.780;2023-12-07T07:03:04;101033.38;;;4.52;72.05
77321;BME280;66382;52.252;8.780;2023-12-07T07:05:30;101031.69;;;4.51;72.48
77321;BME280;66382;52.252;8.780;2023-12-07T07:07:55;101035.19;;;4.52;72.20
77321;BME280;66382;52.252;8.780;2023-12-07T07:10:21;101038.69;;;4.52;72.73
77321;BME280;66382;52.252;8.780;2023-12-07T07:12:46;101039.78;;;4.50;72.79
77321;BME280;66382;52.252;8.780;2023-12-07T07:15:12;101041.59;;;4.49;72.46
77321;BME280;66382;52.252;8.780;2023-12-07T07:17:39;101043.28;;;4.50;72.46
77321;BME280;66382;52.252;8.780;2023-12-07T07:20:05;101045.09;;;4.50;72.91
77321;BME280;66382;52.252;8.780;2023-12-07T07:22:31;101040.88;;;4.47;72.81
77321;BME280;66382;52.252;8.780;2023-12-07T07:24:56;101042.72;;;4.47;72.03
77321;BME280;66382;52.252;8.780;2023-12-07T07:27:22;101043.69;;;4.46;72.45
77321;BME280;66382;52.252;8.780;2023-12-07T07:29:47;101051.78;;;4.44;72.69
77321;BME280;66382;52.252;8.780;2023-12-07T07:32:13;101052.19;;;4.40;72.23
77321;BME280;66382;52.252;8.780;2023-12-07T07:34:39;101057.94;;;4.45;73.02
77321;BME280;66382;52.252;8.780;2023-12-07T07:37:05;101055.97;;;4.47;72.88
77321;BME280;66382;52.252;8.780;2023-12-07T07:39:30;101058.50;;;4.48;72.81
77321;BME280;66382;52.252;8.780;2023-12-07T07:41:56;101066.31;;;4.50;72.77
77321;BME280;66382;52.252;8.780;2023-12-07T07:44:21;101055.16;;;4.46;72.86
77321;BME280;66382;52.252;8.780;2023-12-07T07:46:47;101062.13;;;4.47;72.19
77321;BME280;66382;52.252;8.780;2023-12-07T07:49:12;101067.44;;;4.47;72.81
77321;BME280;66382;52.252;8.780;2023-12-07T07:51:39;101058.50;;;4.48;72.66
77321;BME280;66382;52.252;8.780;2023-12-07T07:54:04;101055.97;;;4.47;72.63
77321;BME280;66382;52.252;8.780;2023-12-07T07:56:30;101054.16;;;4.47;72.86
77321;BME280;66382;52.252;8.780;2023-12-07T07:58:55;101059.34;;;4.49;72.82
77321;BME280;66382;52.252;8.780;2023-12-07T08:01:21;101054.75;;;4.51;72.56
77321;BME280;66382;52.252;8.780;2023-12-07T08:03:46;101055.72;;;4.50;72.98
77321;BME280;66382;52.252;8.780;2023-12-07T08:06:11;101050.41;;;4.50;72.92
77321;BME280;66382;52.252;8.780;2023-12-07T08:08:38;101048.72;;;4.49;72.62
77321;BME280;66382;52.252;8.780;2023-12-07T08:11:04;101044.25;;;4.49;72.87
77321;BME280;66382;52.252;8.780;2023-12-07T08:13:29;101053.75;;;4.52;72.45
77321;BME280;66382;52.252;8.780;2023-12-07T08:15:54;101053.63;;;4.53;73.37
77321;BME280;66382;52.252;8.780;2023-12-07T08:18:20;101059.50;;;4.57;72.95
77321;BME280;66382;52.252;8.780;2023-12-07T08:20:45;101054.06;;;4.59;72.54
77321;BME280;66382;52.252;8.780;2023-12-07T08:23:11;101056.31;;;4.63;72.76
77321;BME280;66382;52.252;8.780;2023-12-07T08:25:39;101056.31;;;4.63;72.45
77321;BME280;66382;52.252;8.780;2023-12-07T08:28:05;101054.38;;;4.65;73.15
77321;BME280;66382;52.252;8.780;2023-12-07T08:30:30;101059.53;;;4.67;73.21
77321;BME280;66382;52.252;8.780;2023-12-07T08:32:56;101059.41;;;4.68;73.09
77321;BME280;66382;52.252;8.780;2023-12-07T08:35:21;101061.94;;;4.70;72.83
77321;BME280;66382;52.252;8.780;2023-12-07T08:37:47;101058.16;;;4.72;73.21
77321;BME280;66382;52.252;8.780;2023-12-07T08:40:12;101073.66;;;4.77;73.11
77321;BME280;66382;52.252;8.780;2023-12-07T08:42:39;101069.91;;;4.80;72.92
77321;BME280;66382;52.252;8.780;2023-12-07T08:45:05;101078.44;;;4.83;72.90
77321;BME280;66382;52.252;8.780;2023-12-07T08:47:31;101069.66;;;4.83;72.62
77321;BME280;66382;52.252;8.780;2023-12-07T08:49:56;101080.00;;;4.86;72.84
77321;BME280;66382;52.252;8.780;2023-12-07T08:52:21;101080.28;;;4.83;72.94
77321;BME280;66382;52.252;8.780;2023-12-07T08:54:47;101072.31;;;4.83;72.96
77321;BME280;66382;52.252;8.780;2023-12-07T08:57:12;101075.91;;;4.82;72.94
77321;BME280;66382;52.252;8.780;2023-12-07T08:59:39;101086.69;;;4.80;73.06
77321;BME280;66382;52.252;8.780;2023-12-07T09:02:04;101086.69;;;4.80;72.86
77321;BME280;66382;52.252;8.780;2023-12-07T09:04:30;101082.22;;;4.81;72.79
77321;BME280;66382;52.252;8.780;2023-12-07T09:06:55;101086.41;;;4.83;73.04
77321;BME280;66382;52.252;8.780;2023-12-07T09:09:21;101082.66;;;4.86;73.23
77321;BME280;66382;52.252;8.780;2023-12-07T09:11:46;101090.06;;;4.92;73.09
77321;BME280;66382;52.252;8.780;2023-12-07T09:14:12;101087.97;;;4.95;72.90
77321;BME280;66382;52.252;8.780;2023-12-07T09:16:43;101092.19;;;4.98;73.10
77321;BME280;66382;52.252;8.780;2023-12-07T09:19:09;101084.91;;;5.00;72.92
77321;BME280;66382;52.252;8.780;2023-12-07T09:21:34;101087.41;;;5.02;72.66
77321;BME280;66382;52.252;8.780;2023-12-07T09:24:00;101083.78;;;5.03;72.85
77321;BME280;66382;52.252;8.780;2023-12-07T09:26:25;101082.69;;;5.05;72.61
77321;BME280;66382;52.252;8.780;2023-12-07T09:28:50;101085.19;;;5.07;72.86
77321;BME280;66382;52.252;8.780;2023-12-07T09:31:16;101077.50;;;5.04;72.72
77321;BME280;66382;52.252;8.780;2023-12-07T09:33:43;101076.66;;;5.03;72.56
77321;BME280;66382;52.252;8.780;2023-12-07T09:36:09;101077.66;;;5.02;72.51
77321;BME280;66382;52.252;8.780;2023-12-07T09:38:35;101076.09;;;5.00;72.82
77321;BME280;66382;52.252;8.780;2023-12-07T09:41:00;101080.56;;;4.99;73.08
77321;BME280;66382;52.252;8.780;2023-12-07T09:43:26;101076.66;;;5.03;72.78
77321;BME280;66382;52.252;8.780;2023-12-07T09:45:54;101081.69;;;5.06;73.21
77321;BME280;66382;52.252;8.780;2023-12-07T09:48:21;101081.69;;;5.06;72.96
77321;BME280;66382;52.252;8.780;2023-12-07T09:50:48;101081.84;;;5.05;72.98
77321;BME280;66382;52.252;8.780;2023-12-07T09:53:13;101086.16;;;5.06;72.81
77321;BME280;66382;52.252;8.780;2023-12-07T09:55:39;101093.84;;;5.09;73.49
77321;BME280;66382;52.252;8.780;2023-12-07T09:58:05;101092.91;;;5.10;73.29
77321;BME280;66382;52.252;8.780;2023-12-07T10:00:30;101092.03;;;5.09;73.04
77321;BME280;66382;52.252;8.780;2023-12-07T10:02:55;101090.25;;;5.10;73.17
77321;BME280;66382;52.252;8.780;2023-12-07T10:05:21;101097.94;;;5.13;73.14
77321;BME280;66382;52.252;8.780;2023-12-07T10:07:49;101093.44;;;5.13;73.06
77321;BME280;66382;52.252;8.780;2023-12-07T10:10:16;101083.66;;;5.14;72.89
77321;BME280;66382;52.252;8.780;2023-12-07T10:12:46;101084.22;;;5.17;73.05
77321;BME280;66382;52.252;8.780;2023-12-07T10:15:12;101089.53;;;5.17;72.58
77321;BME280;66382;52.252;8.780;2023-12-07T10:17:44;101087.72;;;5.18;72.93
77321;BME280;66382;52.252;8.780;2023-12-07T10:20:11;101088.44;;;5.20;72.75
77321;BME280;66382;52.252;8.780;2023-12-07T10:22:38;101083.94;;;5.21;72.92
77321;BME280;66382;52.252;8.780;2023-12-07T10:25:06;101079.63;;;5.20;73.01
77321;BME280;66382;52.252;8.780;2023-12-07T10:27:32;101073.44;;;5.19;72.75
77321;BME280;66382;52.252;8.780;2023-12-07T10:29:58;101077.09;;;5.18;72.82
77321;BME280;66382;52.252;8.780;2023-12-07T10:32:24;101071.22;;;5.14;72.87
77321;BME280;66382;52.252;8.780;2023-12-07T10:34:50;101074.00;;;5.13;72.38
77321;BME280;66382;52.252;8.780;2023-12-07T10:37:15;101068.81;;;5.11;72.33
77321;BME280;66382;52.252;8.780;2023-12-07T10:39:41;101063.66;;;5.10;72.51
77321;BME280;66382;52.252;8.780;2023-12-07T10:42:10;101055.13;;;5.06;72.31
77321;BME280;66382;52.252;8.780;2023-12-07T10:44:40;101054.41;;;5.14;72.58
77321;BME280;66382;52.252;8.780;2023-12-07T10:47:07;101055.69;;;5.20;72.93
77321;BME280;66382;52.252;8.780;2023-12-07T10:49:34;101055.41;;;5.23;72.56
77321;BME280;66382;52.252;8.780;2023-12-07T10:52:02;101052.34;;;5.27;72.80
77321;BME280;66382;52.252;8.780;2023-12-07T10:54:37;101058.19;;;5.31;72.81
77321;BME280;66382;52.252;8.780;2023-12-07T10:57:08;101054.28;;;5.35;72.77
77321;BME280;66382;52.252;8.780;2023-12-07T10:59:35;101049.66;;;5.37;72.85
77321;BME280;66382;52.252;8.780;2023-12-07T11:02:02;101051.34;;;5.38;72.59
77321;BME280;66382;52.252;8.780;2023-12-07T11:04:29;101046.31;;;5.35;72.17
77321;BME280;66382;52.252;8.780;2023-12-07T11:07:02;101040.69;;;5.28;72.13
77321;BME280;66382;52.252;8.780;2023-12-07T11:09:34;101044.06;;;5.21;72.01
77321;BME280;66382;52.252;8.780;2023-12-07T11:12:06;101037.34;;;5.16;71.92
77321;BME280;66382;52.252;8.780;2023-12-07T11:14:34;101032.91;;;5.17;72.38
77321;BME280;66382;52.252;8.780;2023-12-07T11:17:00;101032.59;;;5.20;72.52
77321;BME280;66382;52.252;8.780;2023-12-07T11:19:44;101022.50;;;5.24;72.51
77321;BME280;66382;52.252;8.780;2023-12-07T11:22:10;101023.78;;;5.29;72.30
77321;BME280;66382;52.252;8.780;2023-12-07T11:24:36;101019.31;;;5.30;72.61
77321;BME280;66382;52.252;8.780;2023-12-07T11:27:02;101016.66;;;5.30;72.18
77321;BME280;66382;52.252;8.780;2023-12-07T11:29:29;101010.22;;;5.32;72.76
77321;BME280;66382;52.252;8.780;2023-12-07T11:31:57;101014.94;;;5.38;72.18
77321;BME280;66382;52.252;8.780;2023-12-07T11:34:34;101007.84;;;5.39;72.39
77321;BME280;66382;52.252;8.780;2023-12-07T11:36:59;101005.59;;;5.44;72.43
77321;BME280;66382;52.252;8.780;2023-12-07T11:39:25;100998.84;;;5.50;72.63
77321;BME280;66382;52.252;8.780;2023-12-07T11:41:53;100993.22;;;5.53;72.29
77321;BME280;66382;52.252;8.780;2023-12-07T11:44:19;100985.13;;;5.54;72.30
77321;BME280;66382;52.252;8.780;2023-12-07T11:46:45;100996.28;;;5.58;72.57
77321;BME280;66382;52.252;8.780;2023-12-07T11:49:12;100989.28;;;5.67;72.47
77321;BME280;66382;52.252;8.780;2023-12-07T11:51:38;100999.34;;;5.73;72.41
77321;BME280;66382;52.252;8.780;2023-12-07T11:54:03;100987.13;;;5.80;72.64
77321;BME280;66382;52.252;8.780;2023-12-07T11:56:29;100994.38;;;5.88;72.62
77321;BME280;66382;52.252;8.780;2023-12-07T11:58:55;100991.28;;;5.92;72.39
77321;BME280;66382;52.252;8.780;2023-12-07T12:01:21;100986.69;;;5.94;71.92
77321;BME280;66382;52.252;8.780;2023-12-07T12:03:47;100990.28;;;5.93;72.13
77321;BME280;66382;52.252;8.780;2023-12-07T12:06:14;100982.22;;;5.95;71.88
77321;BME280;66382;52.252;8.780;2023-12-07T12:08:40;100981.22;;;5.96;72.14
77321;BME280;66382;52.252;8.780;2023-12-07T12:11:05;100975.06;;;5.95;71.59
77321;BME280;66382;52.252;8.780;2023-12-07T12:13:34;100983.31;;;6.02;72.39
77321;BME280;66382;52.252;8.780;2023-12-07T12:16:00;100985.34;;;6.08;71.69
77321;BME280;66382;52.252;8.780;2023-12-07T12:18:26;100971.53;;;6.05;72.05
77321;BME280;66382;52.252;8.780;2023-12-07T12:20:52;100960.56;;;6.08;71.12
77321;BME280;66382;52.252;8.780;2023-12-07T12:23:20;100958.22;;;6.05;71.51
77321;BME280;66382;52.252;8.780;2023-12-07T12:25:46;100969.56;;;6.07;71.65
77321;BME280;66382;52.252;8.780;2023-12-07T12:28:15;100972.34;;;6.05;71.50
77321;BME280;66382;52.252;8.780;2023-12-07T12:30:41;100967.75;;;5.97;71.88
77321;BME280;66382;52.252;8.780;2023-12-07T12:33:07;100968.03;;;6.04;71.28
77321;BME280;66382;52.252;8.780;2023-12-07T12:35:33;100958.91;;;6.07;71.79
77321;BME280;66382;52.252;8.780;2023-12-07T12:37:58;100952.75;;;6.06;71.17
77321;BME280;66382;52.252;8.780;2023-12-07T12:40:28;100953.88;;;6.03;71.35
77321;BME280;66382;52.252;8.780;2023-12-07T12:42:53;100947.88;;;6.01;71.68
77321;BME280;66382;52.252;8.780;2023-12-07T12:45:19;100954.03;;;6.02;71.56
77321;BME280;66382;52.252;8.780;2023-12-07T12:47:45;100957.38;;;6.04;71.74
77321;BME280;66382;52.252;8.780;2023-12-07T12:50:12;100951.06;;;6.05;71.68
77321;BME280;66382;52.252;8.780;2023-12-07T12:52:39;100953.41;;;6.08;71.26
77321;BME280;66382;52.252;8.780;2023-12-07T12:55:08;100956.63;;;6.12;71.58